createdAt,value
2022-11-02T00:01:17.465Z,61.19
2022-11-02T00:03:45.925Z,61.37
2022-11-02T00:06:15.829Z,61.37
2022-11-02T00:08:44.312Z,61.61
2022-11-02T00:11:12.710Z,61.65
2022-11-02T00:13:41.112Z,61.52
2022-11-02T00:16:15.976Z,61.65
2022-11-02T00:18:46.329Z,61.98
2022-11-02T00:21:17.933Z,61.88
2022-11-02T00:23:47.793Z,61.48
2022-11-02T00:26:17.022Z,61.98
2022-11-02T00:28:46.277Z,61.96
2022-11-02T00:31:15.316Z,62.24
2022-11-02T00:33:43.719Z,62.29
2022-11-02T00:36:12.244Z,61.98
2022-11-02T00:38:42.109Z,62.19
2022-11-02T00:41:11.007Z,62.34
2022-11-02T00:43:39.649Z,62.19
2022-11-02T00:46:08.023Z,62.18
2022-11-02T00:48:36.526Z,62.35
2022-11-02T00:51:05.512Z,62.19
2022-11-02T00:53:34.090Z,62.33
2022-11-02T00:56:03.891Z,62.03
2022-11-02T00:58:32.752Z,62.30
2022-11-02T01:01:06.254Z,62.19
2022-11-02T01:03:34.656Z,62.29
2022-11-02T01:06:10.182Z,62.07
2022-11-02T01:08:38.655Z,62.22
2022-11-02T01:11:16.510Z,62.06
2022-11-02T01:13:45.589Z,61.76
2022-11-02T01:16:16.278Z,61.95
2022-11-02T01:18:45.066Z,62.06
2022-11-02T01:21:13.608Z,62.10
2022-11-02T01:23:42.042Z,61.79
2022-11-02T01:26:12.064Z,61.97
2022-11-02T01:28:42.928Z,61.88
2022-11-02T01:31:12.695Z,61.96
2022-11-02T01:33:45.693Z,61.94
2022-11-02T01:36:15.157Z,61.96
2022-11-02T01:38:43.996Z,61.98
2022-11-02T01:41:14.030Z,61.82
2022-11-02T01:43:45.497Z,61.88
2022-11-02T01:46:18.810Z,62.17
2022-11-02T01:48:51.374Z,62.05
2022-11-02T01:51:24.333Z,62.22
2022-11-02T01:53:54.711Z,62.38
2022-11-02T01:56:26.079Z,62.44
2022-11-02T01:59:01.004Z,62.09
2022-11-02T02:01:29.702Z,62.18
2022-11-02T02:03:59.036Z,62.24
2022-11-02T02:06:27.458Z,62.30
2022-11-02T02:08:59.089Z,62.26
2022-11-02T02:11:30.390Z,62.43
2022-11-02T02:14:03.998Z,62.50
2022-11-02T02:16:54.128Z,62.55
2022-11-02T02:19:36.967Z,62.53
2022-11-02T02:22:25.135Z,62.20
2022-11-02T02:25:05.368Z,62.30
2022-11-02T02:27:48.064Z,62.24
2022-11-02T02:30:18.488Z,62.57
2022-11-02T02:32:53.398Z,62.60
2022-11-02T02:35:29.525Z,62.54
2022-11-02T02:38:02.355Z,62.59
2022-11-02T02:40:35.741Z,62.63
2022-11-02T02:43:11.577Z,62.53
2022-11-02T02:45:44.828Z,62.56
2022-11-02T02:48:16.630Z,62.66
2022-11-02T02:50:51.034Z,62.55
2022-11-02T02:53:24.861Z,62.61
2022-11-02T02:55:54.149Z,62.81
2022-11-02T02:58:27.914Z,62.67
2022-11-02T03:00:56.496Z,62.68
2022-11-02T03:03:27.341Z,62.93
2022-11-02T03:06:09.265Z,62.59
2022-11-02T03:08:40.082Z,62.82
2022-11-02T03:11:14.790Z,62.72
2022-11-02T03:14:01.147Z,62.61
2022-11-02T03:16:43.437Z,62.55
2022-11-02T03:19:21.676Z,62.52
2022-11-02T03:21:56.251Z,62.55
2022-11-02T03:24:31.496Z,62.57
2022-11-02T03:27:10.552Z,62.54
2022-11-02T03:29:47.123Z,62.17
2022-11-02T03:32:22.302Z,62.43
2022-11-02T03:34:56.939Z,62.75
2022-11-02T03:37:29.233Z,62.80
2022-11-02T03:40:05.052Z,62.83
2022-11-02T03:42:35.322Z,62.84
2022-11-02T03:45:12.225Z,62.80
2022-11-02T03:47:42.526Z,63.16
2022-11-02T03:50:13.744Z,63.08
2022-11-02T03:52:47.450Z,62.86
2022-11-02T03:55:20.713Z,62.99
2022-11-02T03:57:52.210Z,62.93
2022-11-02T04:00:24.006Z,62.87
2022-11-02T04:02:55.988Z,62.95
2022-11-02T04:05:31.213Z,62.69
2022-11-02T04:08:18.181Z,62.73
2022-11-02T04:11:04.333Z,62.81
2022-11-02T04:13:50.310Z,62.85
2022-11-02T04:16:27.767Z,62.83
2022-11-02T04:19:14.246Z,62.49
2022-11-02T04:22:02.958Z,62.26
2022-11-02T04:24:48.602Z,62.61
2022-11-02T04:27:20.856Z,62.75
2022-11-02T04:29:49.743Z,62.20
2022-11-02T04:32:40.073Z,62.48
2022-11-02T04:35:08.737Z,62.57
2022-11-02T04:37:58.695Z,62.62
2022-11-02T04:40:27.401Z,62.56
2022-11-02T04:42:56.555Z,62.42
2022-11-02T04:45:24.944Z,62.30
2022-11-02T04:47:55.418Z,62.36
2022-11-02T04:50:23.745Z,62.67
2022-11-02T04:52:57.228Z,62.77
2022-11-02T04:55:25.981Z,62.66
2022-11-02T04:57:54.450Z,62.83
2022-11-02T05:00:23.805Z,62.85
2022-11-02T05:02:52.699Z,62.94
2022-11-02T05:05:23.247Z,62.86
2022-11-02T05:07:51.624Z,62.96
2022-11-02T05:10:20.002Z,63.02
2022-11-02T05:12:48.474Z,62.93
2022-11-02T05:15:16.848Z,63.15
2022-11-02T05:17:45.529Z,63.37
2022-11-02T05:20:13.890Z,63.33
2022-11-02T05:22:44.814Z,63.09
2022-11-02T05:25:14.383Z,62.92
2022-11-02T05:27:42.816Z,63.09
2022-11-02T05:30:12.321Z,63.17
2022-11-02T05:32:40.835Z,62.57
2022-11-02T05:35:10.270Z,62.70
2022-11-02T05:37:38.633Z,62.70
2022-11-02T05:40:10.415Z,62.66
2022-11-02T05:42:38.798Z,62.52
2022-11-02T05:45:08.212Z,62.76
2022-11-02T05:47:37.049Z,62.76
2022-11-02T05:50:05.934Z,62.72
2022-11-02T05:52:36.234Z,62.39
2022-11-02T05:55:04.894Z,62.38
2022-11-02T05:57:35.175Z,62.50
2022-11-02T06:00:04.281Z,62.80
2022-11-02T06:02:33.305Z,62.79
2022-11-02T06:05:03.619Z,62.39
2022-11-02T06:07:32.009Z,62.55
2022-11-02T06:10:00.692Z,62.81
2022-11-02T06:12:29.038Z,62.86
2022-11-02T06:14:59.604Z,62.91
2022-11-02T06:17:27.988Z,62.98
2022-11-02T06:19:56.260Z,62.53
2022-11-02T06:22:24.641Z,61.68
2022-11-02T06:24:52.972Z,62.58
2022-11-02T06:27:21.505Z,63.07
2022-11-02T06:29:49.864Z,63.09
2022-11-02T06:32:19.638Z,62.76
2022-11-02T06:34:48.220Z,62.97
2022-11-02T06:37:16.649Z,62.99
2022-11-02T06:39:45.045Z,62.89
2022-11-02T06:42:13.469Z,62.55
2022-11-02T06:44:41.838Z,62.69
2022-11-02T06:47:10.219Z,62.90
2022-11-02T06:49:39.972Z,62.77
2022-11-02T06:52:08.393Z,62.44
2022-11-02T06:54:36.887Z,62.51
2022-11-02T06:57:05.367Z,62.55
2022-11-02T06:59:33.755Z,62.75
2022-11-02T07:02:02.284Z,62.26
2022-11-02T07:04:30.716Z,61.66
2022-11-02T07:07:00.582Z,60.87
2022-11-02T07:09:29.190Z,61.49
2022-11-02T07:11:57.630Z,61.99
2022-11-02T07:14:26.198Z,62.38
2022-11-02T07:16:54.726Z,61.93
2022-11-02T07:19:23.151Z,62.30
2022-11-02T07:21:51.427Z,62.59
2022-11-02T07:24:21.278Z,62.13
2022-11-02T07:26:50.753Z,61.92
2022-11-02T07:29:19.793Z,61.77
2022-11-02T07:31:48.227Z,61.96
2022-11-02T07:34:17.363Z,61.78
2022-11-02T07:36:46.381Z,62.01
2022-11-02T07:39:14.890Z,61.74
2022-11-02T07:41:49.346Z,61.64
2022-11-02T07:44:20.450Z,61.97
2022-11-02T07:46:48.800Z,61.78
2022-11-02T07:49:21.281Z,61.75
2022-11-02T07:51:50.190Z,61.81
2022-11-02T07:54:18.588Z,61.66
2022-11-02T07:56:48.504Z,61.34
2022-11-02T07:59:16.857Z,61.52
2022-11-02T08:01:47.608Z,61.72
2022-11-02T08:04:16.225Z,61.28
2022-11-02T08:06:44.670Z,60.93
2022-11-02T08:09:13.199Z,60.79
2022-11-02T08:11:41.535Z,60.88
2022-11-02T08:14:11.446Z,60.46
2022-11-02T08:16:40.549Z,60.15
2022-11-02T08:19:09.000Z,60.16
2022-11-02T08:21:37.361Z,59.12
2022-11-02T08:24:06.450Z,59.16
2022-11-02T08:26:34.782Z,59.50
2022-11-02T08:29:04.173Z,59.72
2022-11-02T08:31:33.985Z,59.37
2022-11-02T08:34:02.375Z,59.46
2022-11-02T08:36:30.812Z,58.78
2022-11-02T08:38:59.275Z,59.19
2022-11-02T08:41:28.129Z,59.24
2022-11-02T08:43:57.264Z,59.29
2022-11-02T08:46:25.764Z,59.16
2022-11-02T08:48:56.271Z,59.00
2022-11-02T08:51:24.659Z,58.98
2022-11-02T08:53:53.561Z,58.91
2022-11-02T08:56:22.155Z,58.55
2022-11-02T08:58:50.594Z,58.67
2022-11-02T09:01:19.070Z,57.48
2022-11-02T09:03:47.547Z,57.54
2022-11-02T09:06:17.427Z,57.83
2022-11-02T09:08:45.830Z,57.74
2022-11-02T09:11:14.268Z,57.87
2022-11-02T09:13:42.610Z,57.64
2022-11-02T09:16:11.297Z,57.37
2022-11-02T09:18:39.705Z,56.51
2022-11-02T09:21:08.561Z,57.39
2022-11-02T09:23:38.569Z,56.64
2022-11-02T09:26:07.017Z,56.70
2022-11-02T09:28:35.351Z,56.85
2022-11-02T09:31:07.429Z,56.59
2022-11-02T09:33:39.145Z,56.92
2022-11-02T09:36:08.604Z,56.90
2022-11-02T09:38:38.520Z,57.10
2022-11-02T09:41:26.978Z,55.34
2022-11-02T09:44:04.429Z,55.99
2022-11-02T09:46:38.163Z,56.23
2022-11-02T09:49:13.894Z,55.77
2022-11-02T09:51:46.293Z,55.73
2022-11-02T09:54:21.242Z,55.88
2022-11-02T09:56:51.468Z,55.83
2022-11-02T09:59:22.301Z,55.75
2022-11-02T10:01:59.979Z,54.82
2022-11-02T10:04:50.995Z,54.96
2022-11-02T10:07:30.121Z,54.04
2022-11-02T10:10:04.461Z,54.36
2022-11-02T10:12:41.396Z,53.55
2022-11-02T10:15:17.166Z,53.60
2022-11-02T10:17:47.800Z,54.04
2022-11-02T10:20:28.601Z,53.57
2022-11-02T10:23:03.892Z,53.97
2022-11-02T10:25:36.023Z,53.86
2022-11-02T10:28:13.166Z,52.97
2022-11-02T10:30:43.372Z,53.31
2022-11-02T10:33:15.041Z,53.14
2022-11-02T10:36:16.873Z,52.87
2022-11-02T10:38:56.275Z,52.37
2022-11-02T10:41:46.154Z,52.71
2022-11-02T10:44:28.329Z,52.20
2022-11-02T10:47:06.592Z,52.07
2022-11-02T10:49:51.593Z,51.59
2022-11-02T10:52:20.813Z,51.86
2022-11-02T10:54:52.033Z,52.12
2022-11-02T10:57:26.040Z,51.51
2022-11-02T11:00:24.893Z,50.88
2022-11-02T11:03:11.069Z,49.98
2022-11-02T11:05:59.384Z,49.50
2022-11-02T11:08:32.096Z,50.19
2022-11-02T11:11:15.598Z,49.93
2022-11-02T11:16:42.913Z,49.71
2022-11-02T11:19:40.192Z,46.82
2022-11-02T11:22:26.868Z,47.81
2022-11-02T11:24:56.231Z,48.06
2022-11-02T11:27:24.916Z,46.20
2022-11-02T11:29:57.141Z,45.61
2022-11-02T11:32:30.515Z,46.56
2022-11-02T11:35:01.533Z,46.80
2022-11-02T11:37:30.577Z,46.98
2022-11-02T11:40:02.642Z,46.21
2022-11-02T11:42:36.137Z,45.55
2022-11-02T11:45:09.532Z,45.45
2022-11-02T11:47:40.866Z,46.01
2022-11-02T11:50:16.258Z,45.85
2022-11-02T11:52:47.073Z,45.39
2022-11-02T11:55:24.247Z,45.21
2022-11-02T11:58:14.885Z,45.12
2022-11-02T12:00:44.997Z,44.73
2022-11-02T12:03:16.512Z,44.09
2022-11-02T12:05:57.121Z,44.42
2022-11-02T12:08:39.217Z,44.27
2022-11-02T12:11:25.097Z,44.28
2022-11-02T12:14:12.129Z,44.17
2022-11-02T12:17:02.081Z,43.66
2022-11-02T12:19:39.522Z,44.16
2022-11-02T12:22:19.741Z,44.04
2022-11-02T12:25:08.863Z,44.03
2022-11-02T12:27:47.963Z,44.04
2022-11-02T12:30:19.768Z,43.65
2022-11-02T12:33:02.550Z,43.48
2022-11-02T12:35:49.600Z,43.45
2022-11-02T12:38:35.379Z,43.50
2022-11-02T12:41:08.505Z,43.71
2022-11-02T12:43:42.892Z,43.05
2022-11-02T12:46:23.422Z,43.28
2022-11-02T12:49:04.205Z,43.49
2022-11-02T12:51:39.585Z,43.94
2022-11-02T12:54:12.660Z,42.74
2022-11-02T12:56:47.287Z,43.44
2022-11-02T12:59:23.113Z,43.84
2022-11-02T13:01:56.595Z,43.65
2022-11-02T13:04:36.859Z,43.93
2022-11-02T13:07:12.930Z,43.70
2022-11-02T13:09:51.530Z,44.17
2022-11-02T13:12:24.180Z,44.40
2022-11-02T13:14:56.022Z,44.12
2022-11-02T13:17:30.156Z,44.24
2022-11-02T13:20:05.861Z,44.92
2022-11-02T13:22:38.406Z,45.10
2022-11-02T13:25:16.977Z,45.22
2022-11-02T13:27:52.032Z,45.18
2022-11-02T13:30:21.719Z,44.02
2022-11-02T13:32:56.145Z,44.34
2022-11-02T13:35:33.655Z,44.29
2022-11-02T13:38:07.970Z,43.88
2022-11-02T13:40:46.122Z,44.52
2022-11-02T13:43:36.205Z,44.76
2022-11-02T13:46:16.461Z,44.83
2022-11-02T13:48:58.035Z,44.58
2022-11-02T13:51:34.377Z,44.07
2022-11-02T13:54:07.205Z,44.47
2022-11-02T13:56:39.023Z,44.67
2022-11-02T13:59:10.661Z,44.12
2022-11-02T14:01:42.679Z,44.34
2022-11-02T14:04:13.812Z,44.77
2022-11-02T14:06:50.558Z,44.68
2022-11-02T14:09:32.129Z,43.79
2022-11-02T14:12:28.048Z,44.54
2022-11-02T14:15:47.957Z,44.92
2022-11-02T14:18:31.799Z,44.78
2022-11-02T14:21:00.748Z,44.55
2022-11-02T14:23:39.405Z,44.72
2022-11-02T14:26:32.744Z,44.94
2022-11-02T14:29:04.745Z,45.44
2022-11-02T14:31:51.822Z,45.48
2022-11-02T14:34:44.671Z,45.56
2022-11-02T14:37:34.618Z,45.64
2022-11-02T14:40:13.692Z,45.66
2022-11-02T14:43:03.226Z,45.55
2022-11-02T14:45:45.195Z,45.85
2022-11-02T14:48:17.501Z,45.31
2022-11-02T14:51:02.195Z,45.47
2022-11-02T14:53:44.174Z,45.62
2022-11-02T14:56:14.037Z,45.73
2022-11-02T14:58:52.210Z,45.95
2022-11-02T15:01:21.418Z,45.68
2022-11-02T15:03:51.645Z,46.12
2022-11-02T15:06:24.489Z,46.40
2022-11-02T15:08:56.685Z,46.46
2022-11-02T15:11:49.681Z,46.28
2022-11-02T15:14:52.425Z,46.67
2022-11-02T15:17:53.207Z,46.70
2022-11-02T15:20:33.268Z,47.29
2022-11-02T15:23:30.507Z,47.32
2022-11-02T15:26:01.229Z,47.32
2022-11-02T15:28:36.034Z,47.65
2022-11-02T15:31:08.887Z,47.80
2022-11-02T15:33:39.913Z,47.98
2022-11-02T15:36:14.448Z,47.82
2022-11-02T15:38:42.994Z,47.98
2022-11-02T15:41:22.247Z,47.92
2022-11-02T15:44:16.787Z,48.16
2022-11-02T15:46:56.414Z,48.34
2022-11-02T15:49:38.929Z,48.38
2022-11-02T15:52:19.271Z,48.53
2022-11-02T15:55:04.533Z,48.71
2022-11-02T15:57:47.529Z,48.88
2022-11-02T16:00:21.785Z,48.92
2022-11-02T16:02:53.411Z,49.02
2022-11-02T16:05:25.079Z,49.24
2022-11-02T16:08:11.529Z,49.31
2022-11-02T16:10:40.536Z,49.22
2022-11-02T16:13:18.165Z,49.28
2022-11-02T16:15:49.769Z,49.44
2022-11-02T16:18:26.576Z,49.33
2022-11-02T16:20:57.624Z,49.39
2022-11-02T16:23:28.545Z,49.65
2022-11-02T16:25:59.392Z,49.50
2022-11-02T16:28:30.047Z,49.73
2022-11-02T16:31:13.524Z,49.62
2022-11-02T16:33:46.342Z,49.38
2022-11-02T16:36:18.507Z,49.56
2022-11-02T16:38:57.521Z,49.39
2022-11-02T16:41:27.837Z,49.71
2022-11-02T16:43:57.423Z,50.10
2022-11-02T16:46:33.031Z,50.12
2022-11-02T16:49:16.873Z,49.90
2022-11-02T16:51:53.516Z,50.17
2022-11-02T16:54:30.609Z,50.26
2022-11-02T16:57:07.186Z,50.61
2022-11-02T16:59:40.397Z,50.79
2022-11-02T17:02:14.187Z,50.87
2022-11-02T17:04:44.788Z,51.04
2022-11-02T17:07:16.774Z,51.03
2022-11-02T17:09:45.463Z,51.16
2022-11-02T17:12:17.672Z,51.33
2022-11-02T17:14:48.790Z,51.20
2022-11-02T17:17:38.081Z,51.47
2022-11-02T17:20:20.143Z,51.44
2022-11-02T17:22:55.265Z,51.66
2022-11-02T17:25:26.097Z,51.54
2022-11-02T17:27:56.379Z,51.49
2022-11-02T17:30:44.936Z,51.56
2022-11-02T17:33:33.543Z,51.66
2022-11-02T17:36:07.740Z,51.92
2022-11-02T17:38:36.637Z,51.97
2022-11-02T17:41:25.409Z,51.92
2022-11-02T17:43:52.686Z,52.00
2022-11-02T17:46:21.202Z,51.89
2022-11-02T17:48:51.009Z,51.67
2022-11-02T17:51:22.042Z,51.81
2022-11-02T17:53:51.458Z,52.18
2022-11-02T17:56:19.842Z,52.16
2022-11-02T17:58:48.310Z,52.19
2022-11-02T18:01:16.903Z,52.19
2022-11-02T18:03:45.397Z,52.09
2022-11-02T18:06:15.228Z,52.36
2022-11-02T18:09:00.891Z,52.40
2022-11-02T18:11:29.287Z,52.75
2022-11-02T18:13:57.754Z,52.80
2022-11-02T18:16:26.570Z,52.60
2022-11-02T18:18:55.402Z,52.57
2022-11-02T18:21:25.912Z,51.94
2022-11-02T18:23:54.259Z,51.63
2022-11-02T18:26:22.960Z,51.85
2022-11-02T18:28:52.969Z,52.15
2022-11-02T18:31:21.557Z,52.00
2022-11-02T18:33:53.949Z,51.84
2022-11-02T18:36:23.313Z,51.98
2022-11-02T18:38:53.484Z,52.49
2022-11-02T18:41:32.104Z,51.88
2022-11-02T18:44:07.840Z,52.19
2022-11-02T18:46:40.336Z,52.15
2022-11-02T18:49:08.749Z,52.12
2022-11-02T18:51:37.439Z,52.29
2022-11-02T18:54:07.829Z,52.11
2022-11-02T18:56:37.022Z,52.02
2022-11-02T18:59:05.614Z,51.67
2022-11-02T19:01:34.679Z,51.94
2022-11-02T19:04:03.573Z,52.16
2022-11-02T19:06:50.777Z,51.98
2022-11-02T19:09:23.413Z,51.81
2022-11-02T19:11:57.097Z,52.07
2022-11-02T19:14:26.980Z,52.27
2022-11-02T19:16:57.480Z,52.35
2022-11-02T19:19:27.267Z,52.37
2022-11-02T19:21:56.925Z,52.56
2022-11-02T19:24:28.544Z,52.37
2022-11-02T19:26:58.400Z,52.43
2022-11-02T19:29:28.162Z,52.68
2022-11-02T19:31:58.014Z,52.60
2022-11-02T19:34:27.797Z,52.64
2022-11-02T19:36:57.787Z,52.64
2022-11-02T19:39:30.047Z,52.68
2022-11-02T19:41:59.491Z,52.95
2022-11-02T19:44:29.272Z,53.03
2022-11-02T19:46:59.553Z,52.76
2022-11-02T19:49:29.015Z,52.97
2022-11-02T19:51:58.608Z,53.13
2022-11-02T19:54:30.113Z,53.31
2022-11-02T19:56:59.653Z,53.29
2022-11-02T19:59:30.909Z,53.54
2022-11-02T20:02:00.918Z,53.65
2022-11-02T20:04:30.421Z,53.85
2022-11-02T20:07:01.432Z,53.93
2022-11-02T20:09:33.010Z,53.88
2022-11-02T20:12:04.715Z,54.02
2022-11-02T20:14:37.002Z,54.11
2022-11-02T20:19:56.371Z,54.32
2022-11-02T20:22:26.988Z,54.33
2022-11-02T20:24:58.662Z,54.21
2022-11-02T20:27:28.618Z,54.37
2022-11-02T20:29:58.644Z,54.18
2022-11-02T20:32:27.439Z,54.51
2022-11-02T20:34:57.336Z,54.51
2022-11-02T20:37:27.602Z,54.59
2022-11-02T20:39:59.133Z,54.63
2022-11-02T20:42:30.336Z,54.80
2022-11-02T20:45:00.066Z,54.88
2022-11-02T20:47:29.903Z,54.80
2022-11-02T20:49:58.373Z,55.00
2022-11-02T20:52:28.537Z,55.02
2022-11-02T20:54:59.806Z,54.97
2022-11-02T20:57:30.017Z,55.34
2022-11-02T21:00:00.508Z,55.28
2022-11-02T21:02:30.858Z,55.25
2022-11-02T21:05:00.579Z,55.53
2022-11-02T21:07:30.660Z,55.79
2022-11-02T21:10:02.853Z,55.67
2022-11-02T21:12:49.215Z,55.87
2022-11-02T21:15:19.545Z,55.86
2022-11-02T21:17:49.510Z,55.63
2022-11-02T21:20:35.267Z,55.71
2022-11-02T21:23:07.436Z,55.99
2022-11-02T21:25:39.336Z,55.90
2022-11-02T21:28:09.614Z,56.03
2022-11-02T21:30:39.006Z,56.14
2022-11-02T21:33:08.016Z,56.15
2022-11-02T21:35:37.250Z,56.26
2022-11-02T21:38:07.822Z,56.35
2022-11-02T21:40:38.640Z,56.50
2022-11-02T21:43:07.392Z,56.49
2022-11-02T21:45:38.194Z,56.64
2022-11-02T21:48:06.951Z,56.79
2022-11-02T21:50:35.253Z,57.08
2022-11-02T21:53:04.051Z,57.13
2022-11-02T21:55:32.713Z,57.19
2022-11-02T21:58:02.996Z,57.29
2022-11-02T22:00:45.159Z,57.26
2022-11-02T22:03:13.679Z,57.30
2022-11-02T22:05:56.311Z,57.35
2022-11-02T22:08:39.844Z,57.26
2022-11-02T22:11:13.336Z,57.40
2022-11-02T22:13:44.465Z,57.64
2022-11-02T22:16:15.803Z,57.61
2022-11-02T22:18:45.214Z,57.65
2022-11-02T22:21:14.477Z,57.70
2022-11-02T22:23:43.018Z,57.94
2022-11-02T22:26:14.236Z,58.09
2022-11-02T22:28:45.245Z,57.98
2022-11-02T22:31:16.272Z,58.20
2022-11-02T22:33:45.490Z,57.96
2022-11-02T22:36:16.452Z,58.31
2022-11-02T22:38:54.268Z,58.06
2022-11-02T22:41:25.897Z,58.35
2022-11-02T22:43:57.738Z,58.14
2022-11-02T22:46:27.818Z,58.19
2022-11-02T22:48:58.988Z,58.25
2022-11-02T22:51:29.846Z,58.38
2022-11-02T22:54:02.033Z,58.71
2022-11-02T22:56:30.537Z,58.79
2022-11-02T22:59:00.707Z,58.50
2022-11-02T23:01:30.732Z,58.64
2022-11-02T23:03:59.553Z,58.63
2022-11-02T23:06:28.714Z,59.03
2022-11-02T23:08:58.883Z,59.13
2022-11-02T23:11:30.065Z,59.11
2022-11-02T23:14:01.443Z,59.05
2022-11-02T23:16:31.555Z,59.18
2022-11-02T23:19:25.218Z,59.27
2022-11-02T23:22:10.771Z,59.38
2022-11-02T23:24:56.288Z,59.53
2022-11-02T23:27:24.817Z,59.64
2022-11-02T23:30:12.105Z,59.66
2022-11-02T23:32:40.858Z,59.87
2022-11-02T23:35:26.925Z,60.10
2022-11-02T23:38:04.243Z,60.08
2022-11-02T23:40:33.153Z,60.27
2022-11-02T23:43:01.546Z,60.22
2022-11-02T23:45:31.364Z,60.06
2022-11-02T23:48:01.182Z,60.46
2022-11-02T23:50:49.463Z,60.63
2022-11-02T23:53:37.619Z,61.00
2022-11-02T23:56:24.832Z,60.81
2022-11-02T23:59:06.625Z,61.18
